Valley Peak, Santa Cruz Island Reserve, California Weather observations

Data are for 10 minute period ending at time listed.
 Day   Time   Solar   Ave.   Ave.  Ave.  Vector  Max.   Baro.   Total    
  of    of     Rad.   Air    Rel.  Wind   Wind   Wind  Press.  Precip.   
Year   Day            Temp.  Hum.  Speed  Dir.   Gust                    
2017   (PST)  Kw/m2    F      %     mph   deg.    mph    mb.     in.     
-------------------------------------------------------------------------
 146    0:00   0.00   52.4   100    0.4   154     1.6   963.3    0.00 
 146    0:10   0.00   52.4   100    1.1   211     2.0   963.4    0.00 
 146    0:20   0.00   52.5   100    1.0   212     1.7   963.4    0.00 
 146    0:30   0.00   52.4   100    1.1   251     1.8   963.5    0.00 
 146    0:40   0.00   52.5   100    1.1   218     1.8   963.5    0.00 
 146    0:50   0.00   52.6   100    1.1   166     1.7   963.5    0.00 
 146    1:00   0.00   52.6   100    1.0   202     2.4   963.4    0.00 
 146    1:10   0.00   52.6   100    2.1   128     3.1   963.5    0.00 
 146    1:20   0.00   52.6   100    2.3   149     3.7   963.5    0.00 
 146    1:30   0.00   52.5   100    1.8   116     3.3   963.5    0.00 
 146    1:40   0.00   52.4    97    2.8   178     4.5   963.5    0.00 
 146    1:50   0.00   52.5   100    2.1   153     2.9   963.4    0.00 
 146    2:00   0.00   52.5   100    0.3   124     1.5   963.3    0.00 
 146    2:10   0.00   52.5   100    0.0   111     0.7   963.3    0.00 
 146    2:20   0.00   52.4   100    0.7   122     1.7   963.4    0.00 
 146    2:30   0.00   52.4    99    0.7   144     2.0   963.5    0.00 
 146    2:40   0.00   52.4    98    1.8   183     2.2   963.5    0.00 
 146    2:50   0.00   52.6   100    1.8   181     2.6   963.4    0.00 
 146    3:00   0.00   52.5   100    1.2   173     1.8   963.4    0.00 
 146    3:10   0.00   52.4   100    2.3   215     3.0   963.5    0.00 
 146    3:20   0.00   52.5    98    2.5   205     3.1   963.6    0.00 
 146    3:30   0.00   52.6    94    1.4   179     2.3   963.7    0.00 
 146    3:40   0.00   52.8    95    1.7   116     2.9   963.7    0.00 
 146    3:50   0.00   52.7    93    2.6   102     3.8   963.7    0.00 
 146    4:00   0.00   52.4    88    3.6    95     4.4   963.8    0.00 
 146    4:10   0.00   52.3    86    4.5    86     5.7   963.7    0.00 
 146    4:20   0.00   52.4    86    2.9   105     4.2   963.7    0.00 
 146    4:30   0.00   52.6    88    3.2    99     4.1   963.8    0.00 
 146    4:40   0.00   52.6    87    3.7    82     4.5   963.8    0.00 
 146    4:50   0.00   52.5    88    2.6   106     4.2   963.9    0.00 
 146    5:00   0.00   52.5    92    1.9   167     3.0   964.0    0.00 
 146    5:10   0.00   52.5   100    1.6   168     2.6   963.9    0.00 
 146    5:20   0.00   52.5    98    2.1   123     3.0   964.0    0.00 
 146    5:30   0.01   52.7    98    1.4   130     3.4   964.1    0.00 
 146    5:40   0.01   53.0    95    2.7   135     3.7   964.2    0.00 
 146    5:50   0.03   53.3    97    0.9   103     2.4   964.3    0.00 
 146    6:00   0.03   53.5    98    2.3   131     3.9   964.3    0.00 
 146    6:10   0.04   53.7    99    1.3   120     2.9   964.4    0.00 
 146    6:20   0.05   53.7    98    1.3    23     2.6   964.5    0.00 
 146    6:30   0.04   54.0    96    1.0   147     3.3   964.5    0.00 
 146    6:40   0.05   54.1    98    0.9   161     2.4   964.6    0.00 
 146    6:50   0.04   53.8    99    3.6   174     5.8   964.6    0.00 
 146    7:00   0.05   53.7   100    2.7   160     4.5   964.7    0.00 
 146    7:10   0.07   53.8   100    2.0   167     3.8   964.8    0.00 
 146    7:20   0.08   54.0   100    1.5   153     3.6   964.9    0.00 
 146    7:30   0.09   54.2   100    0.7   130     2.4   965.0    0.00 
 146    7:40   0.11   54.3    96    1.9   142     4.2   965.1    0.00 
 146    7:50   0.09   54.6    98    2.4   174     4.7   965.2    0.00 
 146    8:00   0.10   54.4   100    2.5   158     4.2   965.2    0.00 
 146    8:10   0.17   54.8   100    1.9   133     5.0   965.3    0.00 
 146    8:20   0.18   55.5    98    1.8   136     4.5   965.5    0.00 
 146    8:30   0.13   55.9    97    1.4   138     3.4   965.5    0.00 
 146    8:40   0.12   55.7    97    1.6   134     4.8   965.6    0.00 
 146    8:50   0.08   55.4    98    2.2   146     4.5   965.7    0.01 
 146    9:00   0.09   55.0    99    2.0   134     3.8   965.7    0.00 
 146    9:10   0.10   55.1    99    1.6   155     3.8   965.7    0.00 
 146    9:20   0.10   54.6   100    2.6   159     5.0   965.7    0.00 
 146    9:30   0.11   54.2   100    4.3   175     6.8   965.7    0.00 
 146    9:40   0.13   53.7   100    4.8   185     6.7   965.8    0.00 
 146    9:50   0.14   53.6   100    5.2   178     7.5   965.9    0.01 
 146   10:00   0.20   53.5   100    5.7   181     8.2   965.9    0.00 
 146   10:10   0.20   54.1   100    4.2   172     6.6   965.9    0.00 
 146   10:20   0.21   54.7    99    2.9   157     5.5   966.0    0.00 
 146   10:30   0.23   56.0    92    2.0   141     4.7   966.1    0.00 
 146   10:40   0.23   57.4    84    0.8   134     2.8   966.2    0.00 
 146   10:50   0.28   58.1    81    1.9   148     3.7   966.2    0.00 
 146   11:00   0.35   58.0    80    3.2   192     5.3   966.2    0.00 
 146   11:10   0.43   57.7    81    3.4   183     7.1   966.2    0.00 
 146   11:20   0.46   60.2    80    3.8   129     7.2   966.2    0.00 
 146   11:30   0.50   61.7    74    2.8   150     6.1   966.1    0.00 
 146   11:40   0.51   61.9    73    3.1   148     6.5   966.1    0.00 
 146   11:50   0.49   63.0    72    3.5   129     7.4   966.1    0.00 
 146   12:00   0.54   64.0    67    2.7   137     6.4   966.1    0.00 
 146   12:10   0.58   64.7    64    2.5   156     7.3   966.1    0.00 
 146   12:20   0.58   65.3    59    3.2   171    10.4   966.1    0.00 
 146   12:30   0.57   64.9    57    4.3   179     9.6   966.2    0.00 
 146   12:40   0.63   65.0    56    4.7   179    11.4   966.1    0.00 
 146   12:50   0.62   64.7    54    6.2   177    12.1   966.1    0.00 
 146   13:00   0.61   65.1    55    5.3   197    10.7   966.1    0.00 
 146   13:10   0.65   63.0    57    8.7   227    14.5   966.0    0.00 
 146   13:20   0.73   62.6    58    7.4   223    12.1   966.0    0.00 
 146   13:30   0.69   64.0    56    5.0   209    10.8   965.9    0.00 
 146   13:40   0.69   66.0    54    3.0   179     8.3   965.9    0.00 
 146   13:50   0.54   66.1    56    2.0    40     4.9   965.9    0.00 
 146   14:00   0.45   64.8    58    1.7    22     5.0   965.9    0.00 
 146   14:10   0.37   65.1    61    2.8    68     5.0   965.9    0.00 
 146   14:20   0.39   63.7    64    2.5    30     4.7   965.9    0.00 
 146   14:30   0.33   61.8    69    4.1    36     7.2   965.8    0.00 
 146   14:40   0.44   61.7    71    6.0    37     9.2   965.7    0.00 
 146   14:50   0.84   64.1    69    6.1    42     9.9   965.6    0.00 
 146   15:00   0.72   67.2    63    4.0    52     8.8   965.6    0.00 
 146   15:10   0.60   66.3    65    4.3    55     7.1   965.7    0.00 
 146   15:20   0.63   67.2    63    2.9    65     6.5   965.7    0.00 
 146   15:30   0.38   65.0    67    4.2    38     8.3   965.7    0.00 
 146   15:40   0.20   59.8    79    5.0    26     8.1   965.6    0.00 
 146   15:50   0.23   58.7    83    4.8    38     7.4   965.5    0.00 
 146   16:00   0.36   60.6    78    3.9    39     6.9   965.5    0.00 
 146   16:10   0.46   60.1    79    4.0    26     6.2   965.5    0.00 
 146   16:20   0.29   61.7    74    2.2    16     4.5   965.5    0.00 
 146   16:30   0.38   61.0    76    3.0    36     5.3   965.5    0.00 
 146   16:40   0.36   63.1    71    2.9    35     5.6   965.5    0.00 
 146   16:50   0.36   62.2    73    4.6    30     8.0   965.5    0.00 
 146   17:00   0.36   61.3    74    6.8    31     9.9   965.5    0.00 
 146   17:10   0.33   60.2    77    7.0    26     9.6   965.5    0.00 
 146   17:20   0.31   58.6    81    6.7    30     9.1   965.5    0.00 
 146   17:30   0.24   59.5    78    6.3    35     8.6   965.4    0.00 
 146   17:40   0.21   58.1    81    6.4    38    10.2   965.4    0.00 
 146   17:50   0.19   57.7    81    6.7    38     9.3   965.4    0.00 
 146   18:00   0.16   57.9    81    5.9    41     8.4   965.5    0.00 
 146   18:10   0.04   55.7    85    6.5    39     9.3   965.5    0.00 
 146   18:20   0.01   53.3    92    5.8    44     8.3   965.5    0.00 
 146   18:30   0.01   52.4    95    6.8    41     8.7   965.6    0.00 
 146   18:40   0.01   51.5    98    7.8    37    10.7   965.8    0.00 
 146   18:50   0.01   50.9   100    7.6    32    10.1   965.7    0.00 
 146   19:00   0.00   50.6   100    8.3    27    10.0   965.8    0.00 
 146   19:10   0.00   50.2   100    8.3    27     9.4   965.8    0.00 
 146   19:20   0.00   50.0   100    7.9    28     9.1   965.9    0.00 
 146   19:30   0.00   49.9   100    8.0    33     9.1   966.0    0.00 
 146   19:40   0.00   49.8   100    6.9    28     8.2   966.1    0.00 
 146   19:50   0.00   49.8   100    7.1    22     8.2   966.1    0.00 
 146   20:00   0.00   49.9   100    7.2    20     8.3   966.2    0.00 
 146   20:10   0.00   49.8   100    7.1    22     8.4   966.3    0.00 
 146   20:20   0.00   50.0   100    6.7    16     8.3   966.3    0.00 
 146   20:30   0.00   50.0   100    7.0    18     8.3   966.5    0.00 
 146   20:40   0.00   49.8   100    6.4    25     7.8   966.6    0.00 
 146   20:50   0.00   49.8    99    5.7    12     7.2   966.7    0.00 
 146   21:00   0.00   50.0    96    5.4    11     6.9   966.8    0.00 
 146   21:10   0.00   50.2    94    4.3     5     5.5   966.8    0.00 
 146   21:20   0.00   50.8    91    3.5   345     4.0   966.9    0.00 
 146   21:30   0.00   51.0    91    3.0   329     3.7   966.9    0.00 
 146   21:40   0.00   51.1    91    2.7   328     3.9   967.0    0.00 
 146   21:50   0.00   51.6    90    2.7   316     3.4   967.1    0.00 
 146   22:00   0.00   51.3    89    3.4   316     4.7   967.1    0.00 
 146   22:10   0.00   51.3    88    4.7   306     5.6   967.1    0.00 
 146   22:20   0.00   51.5    87    4.9   319     5.8   967.0    0.00 
 146   22:30   0.00   51.7    87    4.5   350     5.0   967.1    0.00 
 146   22:40   0.00   51.7    84    4.9   359     5.7   967.1    0.00 
 146   22:50   0.00   51.6    83    6.1   347     7.0   967.0    0.00 
 146   23:00   0.00   52.1    82    6.2   335     7.2   967.0    0.00 
 146   23:10   0.00   52.3    81    5.2   336     6.3   967.0    0.00 
 146   23:20   0.00   52.3    80    5.1   346     5.8   966.9    0.00 
 146   23:30   0.00   51.6    81    6.0   349     7.1   966.9    0.00 
 146   23:40   0.00   51.6    80    6.5   344     7.4   966.8    0.00 
 146   23:50   0.00   52.0    79    5.2   341     6.4   966.8    0.00 

Return to Valley Peak, Santa Cruz Island Reserve graphs page.


Western Regional Climate Center,wrcc@dri.edu